Terminal Aerodrome Forecast
Issued by NWS Green Bay, WI

Home | Current Version | Previous Version | Graphics & Text | Print | Product List | Glossary On
Versions: 1 2 3 4 5 6 7 8 9 10 11 12 13
000
FTUS43 KGRB 221321 AAB
TAFGRB
TAF AMD
KGRB 221321Z 2213/2312 18007KT P6SM FEW070
     FM221700 20010G15KT P6SM FEW200
     FM230100 21006KT P6SM FEW250=

USA.gov is the U.S. government's official web portal to all federal, state and local government web resources and services.